Time;durP1;ratioP1;P1;durP2;ratioP2;P2;SDS_P1;SDS_P2;PMS_P1;PMS_P2;Temp;Humidity;BMP_temperature;BMP_pressure;BME280_temperature;BME280_humidity;BME280_pressure;Samples;Min_cycle;Max_cycle;Signal;HPM_P1;HPM_P2
2023/10/20 00:01:30;;;;;;;10.57;9.57;;;16.70;99.90;;;;;;5073615;28;20453;-59
2023/10/20 00:03:58;;;;;;;9.97;9.17;;;16.70;99.90;;;;;;5073487;28;20449;-59
2023/10/20 00:06:25;;;;;;;10.50;9.50;;;16.70;99.90;;;;;;5073391;28;20445;-59
2023/10/20 00:08:51;;;;;;;11.20;9.60;;;16.70;99.90;;;;;;5073453;28;20441;-59
2023/10/20 00:11:18;;;;;;;10.27;8.30;;;16.70;99.90;;;;;;5073057;28;20493;-59
2023/10/20 00:13:45;;;;;;;10.60;9.53;;;16.70;99.90;;;;;;5073353;28;20451;-59
2023/10/20 00:16:11;;;;;;;9.70;8.70;;;16.70;99.90;;;;;;5073339;28;20436;-60
2023/10/20 00:18:38;;;;;;;11.20;10.13;;;16.60;99.90;;;;;;5073350;28;20437;-60
2023/10/20 00:21:06;;;;;;;13.90;10.50;;;16.60;99.90;;;;;;5072969;28;20966;-59
2023/10/20 00:23:33;;;;;;;10.57;9.40;;;16.70;99.90;;;;;;5072985;28;20827;-59
2023/10/20 00:25:59;;;;;;;10.77;9.30;;;16.70;99.90;;;;;;5073261;28;20448;-59
2023/10/20 00:28:26;;;;;;;10.23;9.23;;;16.70;99.90;;;;;;5073276;28;20441;-59
2023/10/20 00:30:54;;;;;;;9.10;8.30;;;16.60;99.90;;;;;;5073027;28;20484;-59
2023/10/20 00:33:20;;;;;;;9.70;8.80;;;16.70;99.90;;;;;;5073185;28;20455;-59
2023/10/20 00:35:47;;;;;;;10.10;9.20;;;16.60;99.90;;;;;;5073182;28;20448;-59
2023/10/20 00:38:15;;;;;;;10.57;9.47;;;16.60;99.90;;;;;;5073121;28;20449;-59
2023/10/20 00:40:46;;;;;;;9.93;8.93;;;16.70;99.90;;;;;;5073249;28;20475;-59
2023/10/20 00:43:13;;;;;;;10.37;9.47;;;16.60;99.90;;;;;;5073129;28;20421;-60
2023/10/20 00:45:40;;;;;;;9.83;8.83;;;16.70;99.90;;;;;;5073053;28;20456;-59
2023/10/20 00:48:08;;;;;;;11.00;9.53;;;16.60;99.90;;;;;;5072666;28;21006;-60
2023/10/20 00:50:35;;;;;;;11.87;9.70;;;16.60;99.90;;;;;;5072855;28;20479;-59
2023/10/20 00:53:03;;;;;;;11.50;10.30;;;16.60;99.90;;;;;;5072997;28;20810;-59
2023/10/20 00:55:31;;;;;;;10.33;9.10;;;16.60;99.90;;;;;;5073001;28;20456;-59
2023/10/20 00:57:58;;;;;;;9.63;8.73;;;16.60;99.90;;;;;;5072689;28;20958;-60
2023/10/20 01:00:25;;;;;;;9.90;9.00;;;16.60;99.90;;;;;;5072810;28;20468;-59
2023/10/20 01:02:53;;;;;;;10.43;9.20;;;16.60;99.90;;;;;;5072866;28;20486;-59
2023/10/20 01:05:22;;;;;;;10.80;9.80;;;16.60;99.90;;;;;;5072887;28;20449;-59
2023/10/20 01:07:49;;;;;;;11.47;10.37;;;16.60;99.90;;;;;;5072853;28;20451;-59
2023/10/20 01:10:16;;;;;;;11.47;10.37;;;16.60;99.90;;;;;;5074391;28;20468;-59
2023/10/20 01:12:44;;;;;;;10.80;9.80;;;16.60;99.90;;;;;;5076758;28;20476;-59
2023/10/20 01:15:14;;;;;;;11.27;10.07;;;16.60;99.90;;;;;;5076277;28;20938;-59
2023/10/20 01:17:41;;;;;;;12.03;9.90;;;16.60;99.90;;;;;;5076754;28;20448;-60
2023/10/20 01:20:08;;;;;;;11.63;10.43;;;16.60;99.90;;;;;;5076572;28;20464;-59
2023/10/20 01:22:35;;;;;;;11.13;10.03;;;16.70;99.90;;;;;;5076595;28;20472;-60
2023/10/20 01:25:04;;;;;;;16.30;11.37;;;16.70;99.90;;;;;;5076629;28;20449;-59
2023/10/20 01:27:30;;;;;;;12.97;11.53;;;16.60;99.90;;;;;;5076532;28;20440;-59
2023/10/20 01:29:57;;;;;;;18.23;10.60;;;16.60;99.90;;;;;;5076127;28;20471;-59
2023/10/20 01:32:24;;;;;;;60.37;15.70;;;16.60;99.90;;;;;;5076258;28;20476;-60
2023/10/20 01:34:50;;;;;;;13.63;11.80;;;16.60;99.90;;;;;;5076290;28;20532;-60
2023/10/20 01:37:18;;;;;;;13.43;12.00;;;16.60;99.90;;;;;;5076313;28;20451;-59
2023/10/20 01:39:44;;;;;;;13.27;11.93;;;16.60;99.90;;;;;;5076180;28;20443;-59
2023/10/20 01:42:13;;;;;;;12.90;11.47;;;16.60;99.90;;;;;;5076377;28;20464;-59
2023/10/20 01:44:40;;;;;;;13.67;12.30;;;16.60;99.90;;;;;;5076065;28;20440;-59
2023/10/20 01:47:06;;;;;;;12.63;11.40;;;16.60;99.90;;;;;;5076129;28;20448;-60
2023/10/20 01:49:33;;;;;;;13.47;11.07;;;16.60;99.90;;;;;;5075984;28;20455;-59
2023/10/20 01:52:00;;;;;;;14.83;12.50;;;16.60;99.90;;;;;;5075914;28;20492;-59
2023/10/20 01:54:26;;;;;;;14.53;13.03;;;16.60;99.90;;;;;;5076025;28;20452;-60
2023/10/20 01:56:53;;;;;;;13.73;12.43;;;16.60;99.90;;;;;;5076048;28;20452;-60
2023/10/20 01:59:21;;;;;;;14.97;12.00;;;16.60;99.90;;;;;;5075670;28;20931;-60
2023/10/20 02:01:48;;;;;;;15.10;13.10;;;16.60;99.90;;;;;;5075557;28;20996;-59
2023/10/20 02:04:15;;;;;;;13.83;12.43;;;16.60;99.90;;;;;;5075917;28;20445;-60
2023/10/20 02:06:42;;;;;;;20.10;14.60;;;16.60;99.90;;;;;;5075730;28;20459;-60
2023/10/20 02:09:09;;;;;;;15.07;12.90;;;16.60;99.90;;;;;;5075280;28;20544;-60
2023/10/20 02:11:36;;;;;;;14.27;12.83;;;16.70;99.90;;;;;;5075366;28;20536;-59
2023/10/20 02:14:03;;;;;;;16.40;12.50;;;16.60;99.90;;;;;;5075646;28;20448;-59
2023/10/20 02:16:32;;;;;;;14.17;11.70;;;16.60;99.90;;;;;;5075182;28;20989;-59
2023/10/20 02:18:59;;;;;;;13.40;11.83;;;16.60;99.90;;;;;;5075470;28;20463;-59
2023/10/20 02:21:25;;;;;;;14.57;12.70;;;16.60;99.90;;;;;;5074819;28;20866;-60
2023/10/20 02:23:52;;;;;;;13.70;11.07;;;16.60;99.90;;;;;;5075562;28;20437;-60
2023/10/20 02:26:20;;;;;;;13.73;12.00;;;16.70;99.90;;;;;;5074981;28;20887;-59
2023/10/20 02:28:47;;;;;;;12.97;11.67;;;16.60;99.90;;;;;;5075296;28;20494;-60
2023/10/20 02:31:17;;;;;;;12.43;11.10;;;16.60;99.90;;;;;;5074848;28;20471;-60
2023/10/20 02:33:45;;;;;;;11.50;10.10;;;16.70;99.90;;;;;;5075184;28;20452;-60
2023/10/20 02:36:17;;;;;;;13.40;11.00;;;16.60;99.90;;;;;;5075107;28;20448;-59
2023/10/20 02:38:43;;;;;;;11.63;10.37;;;16.60;99.90;;;;;;5074751;28;20429;-60
2023/10/20 02:41:10;;;;;;;13.00;11.60;;;16.60;99.90;;;;;;5074843;28;20461;-59
2023/10/20 02:43:37;;;;;;;13.23;10.97;;;16.60;99.90;;;;;;5075040;28;20449;-59
2023/10/20 02:46:04;;;;;;;11.40;10.00;;;16.70;99.90;;;;;;5074996;28;20448;-59
2023/10/20 02:48:30;;;;;;;11.20;9.70;;;16.60;99.90;;;;;;5074841;28;20452;-59
2023/10/20 02:50:58;;;;;;;9.93;8.93;;;16.70;99.90;;;;;;5074683;28;20477;-59
2023/10/20 02:53:25;;;;;;;10.20;9.30;;;16.60;99.90;;;;;;5074874;28;20476;-59
2023/10/20 02:55:52;;;;;;;9.10;8.30;;;16.70;99.90;;;;;;5074660;28;20468;-59
2023/10/20 02:58:18;;;;;;;10.27;9.20;;;16.60;99.90;;;;;;5074585;28;20467;-59
2023/10/20 03:00:49;;;;;;;9.60;8.10;;;16.70;99.90;;;;;;5074473;28;20830;-59
2023/10/20 03:03:17;;;;;;;10.20;9.10;;;16.70;99.90;;;;;;5074537;28;20425;-60
2023/10/20 03:05:45;;;;;;;9.03;8.13;;;16.70;99.90;;;;;;5074428;28;20515;-59
2023/10/20 03:08:13;;;;;;;8.97;8.17;;;16.70;99.90;;;;;;5074425;28;20556;-60
2023/10/20 03:10:40;;;;;;;7.90;7.20;;;16.70;99.90;;;;;;5074266;28;20490;-59
2023/10/20 03:13:07;;;;;;;7.80;6.80;;;16.70;99.90;;;;;;5074403;28;20546;-59
2023/10/20 03:15:34;;;;;;;7.53;6.90;;;16.70;99.90;;;;;;5073859;28;20961;-59
2023/10/20 03:18:00;;;;;;;7.00;6.40;;;16.70;99.90;;;;;;5074103;28;20448;-60
2023/10/20 03:20:30;;;;;;;7.00;6.30;;;16.70;99.90;;;;;;5074139;28;20464;-60
2023/10/20 03:22:57;;;;;;;7.07;6.03;;;16.70;99.90;;;;;;5073837;28;20938;-59
2023/10/20 03:25:26;;;;;;;6.80;6.23;;;16.70;99.90;;;;;;5073874;28;20817;-59
2023/10/20 03:27:52;;;;;;;5.97;5.47;;;16.70;99.90;;;;;;5074042;28;20833;-59
2023/10/20 03:30:19;;;;;;;5.57;5.07;;;16.80;99.90;;;;;;5073725;28;21026;-59
2023/10/20 03:32:47;;;;;;;5.17;4.77;;;16.80;99.90;;;;;;5073114;28;20477;-60
2023/10/20 03:35:15;;;;;;;5.23;4.83;;;16.80;99.90;;;;;;5073585;28;20934;-59
2023/10/20 03:37:42;;;;;;;5.20;4.40;;;16.80;99.90;;;;;;5073702;28;20484;-60
2023/10/20 03:40:13;;;;;;;6.03;5.37;;;16.80;99.90;;;;;;5073537;28;20468;-60
2023/10/20 03:42:42;;;;;;;5.37;4.80;;;16.90;99.90;;;;;;5073817;28;20425;-59
2023/10/20 03:45:10;;;;;;;5.30;4.80;;;16.80;99.90;;;;;;5073883;28;20477;-59
2023/10/20 03:47:39;;;;;;;4.50;3.93;;;16.90;99.90;;;;;;5073672;28;20510;-60
2023/10/20 03:50:13;;;;;;;6.87;4.50;;;16.80;99.90;;;;;;5073825;28;20445;-60
2023/10/20 03:52:41;;;;;;;4.83;4.43;;;16.80;99.90;;;;;;5073597;28;20471;-59
2023/10/20 03:55:13;;;;;;;5.33;4.83;;;16.80;99.90;;;;;;5073607;28;20468;-60
2023/10/20 03:57:41;;;;;;;6.13;3.70;;;16.80;99.90;;;;;;5074131;28;20516;-60
2023/10/20 04:00:17;;;;;;;3.70;3.40;;;16.80;99.90;;;;;;5073480;28;20467;-60
2023/10/20 04:02:46;;;;;;;4.50;4.10;;;16.80;99.90;;;;;;5073680;28;20440;-60
2023/10/20 04:05:14;;;;;;;4.00;3.50;;;16.80;99.90;;;;;;5073437;28;20445;-59
2023/10/20 04:07:41;;;;;;;5.20;3.87;;;16.80;99.90;;;;;;5073450;28;20481;-60
2023/10/20 04:10:08;;;;;;;4.00;3.60;;;16.90;99.90;;;;;;5073711;28;20500;-60
2023/10/20 04:12:37;;;;;;;3.77;3.47;;;16.80;99.90;;;;;;5073320;28;20488;-59
2023/10/20 04:15:08;;;;;;;3.60;3.30;;;16.90;99.90;;;;;;5073387;28;20467;-59
2023/10/20 04:17:38;;;;;;;5.27;3.93;;;16.90;99.90;;;;;;5073404;28;20452;-59
2023/10/20 04:20:06;;;;;;;4.67;3.90;;;16.90;99.90;;;;;;5074101;28;20449;-60
2023/10/20 04:22:33;;;;;;;5.20;3.90;;;16.80;99.90;;;;;;5073112;28;21036;-60
2023/10/20 04:25:01;;;;;;;4.47;3.33;;;16.80;99.90;;;;;;5073243;28;20441;-59
2023/10/20 04:27:44;;;;;;;3.90;3.50;;;16.90;99.90;;;;;;5074091;28;20448;-59
2023/10/20 04:52:26;;;;;;;4.90;4.00;;;16.80;99.90;;;;;;5066618;28;20475;-59
2023/10/20 04:54:58;;;;;;;6.93;4.00;;;16.80;99.90;;;;;;5076856;28;20439;-59
2023/10/20 04:57:50;;;;;;;4.17;3.87;;;16.80;99.90;;;;;;5076980;28;20432;-59
2023/10/20 05:00:37;;;;;;;5.10;4.60;;;16.80;99.90;;;;;;5077011;28;20460;-59
2023/10/20 05:05:58;;;;;;;4.80;4.50;;;16.80;99.90;;;;;;5056910;28;20453;-59
2023/10/20 05:08:25;;;;;;;5.77;5.27;;;16.80;99.90;;;;;;5056817;28;20513;-59
2023/10/20 05:10:54;;;;;;;5.53;4.90;;;16.80;99.90;;;;;;5056415;28;20469;-59
2023/10/20 05:13:22;;;;;;;5.10;4.70;;;16.80;99.90;;;;;;5056657;28;20496;-59
2023/10/20 05:15:50;;;;;;;6.70;4.97;;;16.80;99.90;;;;;;5056598;28;20453;-58
2023/10/20 05:18:18;;;;;;;4.87;4.43;;;16.90;99.90;;;;;;5056607;28;20445;-59
2023/10/20 05:20:46;;;;;;;5.43;4.30;;;16.90;99.90;;;;;;5056478;28;20480;-59
2023/10/20 05:23:14;;;;;;;4.57;4.27;;;16.80;99.90;;;;;;5056474;28;20564;-59
2023/10/20 05:25:46;;;;;;;5.13;4.10;;;16.80;99.90;;;;;;5056130;28;20907;-59
2023/10/20 05:28:14;;;;;;;4.60;4.20;;;16.80;99.90;;;;;;5056569;28;20457;-58
2023/10/20 05:30:43;;;;;;;4.70;4.37;;;16.90;99.90;;;;;;5056354;28;20819;-59
2023/10/20 05:33:11;;;;;;;4.83;4.43;;;16.90;99.90;;;;;;5056359;28;20520;-58
2023/10/20 05:35:39;;;;;;;4.80;4.43;;;16.80;99.90;;;;;;5056414;28;20459;-58
2023/10/20 05:38:06;;;;;;;6.20;4.57;;;16.80;99.90;;;;;;5056253;28;20495;-58
2023/10/20 05:40:34;;;;;;;8.10;4.30;;;16.80;99.90;;;;;;5056283;28;20552;-58
2023/10/20 05:43:03;;;;;;;4.67;4.27;;;16.80;99.90;;;;;;5056248;28;20438;-58
2023/10/20 05:45:32;;;;;;;5.23;4.73;;;16.80;99.90;;;;;;5056194;28;20449;-58
2023/10/20 05:48:00;;;;;;;4.23;3.83;;;16.80;99.90;;;;;;5056036;28;20453;-58
2023/10/20 05:50:27;;;;;;;4.13;3.67;;;16.80;99.90;;;;;;5056130;28;20474;-58
2023/10/20 05:52:55;;;;;;;4.10;3.80;;;16.80;99.90;;;;;;5056020;28;20482;-58
2023/10/20 05:55:22;;;;;;;4.00;3.43;;;16.80;99.90;;;;;;5055092;28;20453;-58
2023/10/20 05:57:49;;;;;;;3.70;3.40;;;16.80;99.90;;;;;;5056186;28;20819;-57
2023/10/20 06:00:16;;;;;;;4.30;3.83;;;16.80;99.90;;;;;;5055864;28;20903;-57
2023/10/20 06:02:46;;;;;;;4.40;3.97;;;16.80;99.90;;;;;;5056199;28;20567;-57
2023/10/20 06:05:13;;;;;;;3.80;3.50;;;16.80;99.90;;;;;;5056264;28;20947;-57
2023/10/20 06:07:40;;;;;;;3.63;3.33;;;16.80;99.90;;;;;;5056173;28;20477;-57
2023/10/20 06:10:11;;;;;;;3.60;3.30;;;16.80;99.90;;;;;;5055878;28;20494;-57
2023/10/20 06:12:38;;;;;;;3.70;3.40;;;16.90;99.90;;;;;;5056025;28;20505;-58
2023/10/20 06:15:07;;;;;;;3.73;3.27;;;16.80;99.90;;;;;;5055760;28;20446;-58
2023/10/20 06:17:34;;;;;;;4.00;3.60;;;16.80;99.90;;;;;;5055733;28;20485;-57
2023/10/20 06:20:06;;;;;;;3.07;2.87;;;16.80;99.90;;;;;;5055274;28;20989;-58
2023/10/20 06:22:33;;;;;;;3.50;3.27;;;16.80;99.90;;;;;;5055681;28;20511;-58
2023/10/20 06:25:00;;;;;;;4.00;3.70;;;16.80;99.90;;;;;;5055577;28;20438;-57
2023/10/20 06:27:28;;;;;;;3.47;3.17;;;16.90;99.90;;;;;;5055297;28;20469;-57
2023/10/20 06:29:58;;;;;;;4.27;3.57;;;16.90;99.90;;;;;;5055147;28;20453;-57
2023/10/20 06:32:25;;;;;;;5.00;3.50;;;16.80;99.90;;;;;;5055211;28;20469;-58
2023/10/20 06:34:57;;;;;;;5.20;3.30;;;16.80;99.90;;;;;;5055132;28;20480;-57
2023/10/20 06:37:28;;;;;;;3.60;3.37;;;16.80;99.90;;;;;;5055439;28;20430;-57
2023/10/20 06:39:56;;;;;;;5.63;3.50;;;16.80;99.90;;;;;;5055040;28;20434;-57
2023/10/20 06:42:24;;;;;;;2.93;2.60;;;16.90;99.90;;;;;;5054990;28;20444;-57
2023/10/20 06:44:52;;;;;;;4.30;3.90;;;16.80;99.90;;;;;;5054966;28;20962;-57
2023/10/20 06:47:19;;;;;;;4.30;3.80;;;16.80;99.90;;;;;;5054852;28;20515;-57
2023/10/20 06:49:46;;;;;;;3.67;3.37;;;16.90;99.90;;;;;;5054905;28;20453;-57
2023/10/20 06:52:17;;;;;;;3.87;3.57;;;16.80;99.90;;;;;;5054833;28;20448;-57
2023/10/20 06:54:44;;;;;;;5.93;3.20;;;16.80;99.90;;;;;;5054764;28;20883;-57
2023/10/20 06:57:11;;;;;;;3.57;3.27;;;16.90;99.90;;;;;;5054700;28;20457;-58
2023/10/20 06:59:37;;;;;;;3.53;3.10;;;16.90;99.90;;;;;;5054641;28;20450;-57
2023/10/20 07:02:06;;;;;;;5.90;3.37;;;16.90;99.90;;;;;;5054798;28;20470;-58
2023/10/20 07:04:32;;;;;;;4.60;2.50;;;16.80;99.90;;;;;;5054693;28;20442;-58
2023/10/20 07:06:59;;;;;;;3.70;2.77;;;16.80;99.90;;;;;;5054698;28;20444;-57
2023/10/20 07:09:26;;;;;;;3.03;2.83;;;16.80;99.90;;;;;;5054826;28;20448;-58
2023/10/20 07:11:53;;;;;;;3.40;2.90;;;16.90;99.90;;;;;;5054396;28;20495;-57
2023/10/20 07:14:20;;;;;;;5.13;2.87;;;16.80;99.90;;;;;;5053918;28;20484;-57
2023/10/20 07:16:46;;;;;;;4.13;2.77;;;16.80;99.90;;;;;;5053965;28;20938;-57
2023/10/20 07:19:14;;;;;;;5.20;3.13;;;16.80;99.90;;;;;;5054344;28;20545;-58
2023/10/20 07:21:41;;;;;;;3.40;3.10;;;16.90;99.90;;;;;;5054176;28;20469;-58
2023/10/20 07:24:08;;;;;;;3.00;2.70;;;16.80;99.90;;;;;;5053843;28;20810;-58
2023/10/20 07:26:35;;;;;;;3.90;3.50;;;16.90;99.90;;;;;;5053809;28;20944;-57
2023/10/20 07:29:02;;;;;;;3.33;2.63;;;16.90;99.90;;;;;;5054181;28;20481;-57
2023/10/20 07:31:29;;;;;;;2.80;2.60;;;16.80;99.90;;;;;;5053950;28;20466;-58
2023/10/20 07:33:56;;;;;;;3.63;3.17;;;16.90;99.90;;;;;;5053904;28;20849;-57
2023/10/20 07:36:24;;;;;;;3.60;3.27;;;16.90;99.90;;;;;;5053990;28;20472;-57
2023/10/20 07:38:51;;;;;;;5.00;3.67;;;16.90;99.90;;;;;;5054027;28;20441;-58
2023/10/20 07:41:18;;;;;;;4.30;3.57;;;16.90;99.90;;;;;;5053685;28;20830;-58
2023/10/20 07:43:44;;;;;;;4.50;3.77;;;16.90;99.90;;;;;;5053840;28;20478;-57
2023/10/20 07:46:15;;;;;;;3.87;3.30;;;16.90;99.90;;;;;;5053906;28;20453;-57
2023/10/20 07:48:42;;;;;;;3.43;3.10;;;16.90;99.90;;;;;;5053570;28;20888;-57
2023/10/20 07:51:09;;;;;;;4.60;3.60;;;16.90;99.90;;;;;;5053385;28;21013;-58
2023/10/20 07:53:37;;;;;;;4.87;4.40;;;16.90;99.90;;;;;;5053966;28;20477;-58
2023/10/20 07:56:04;;;;;;;3.90;3.60;;;16.90;99.90;;;;;;5053675;28;20453;-57
2023/10/20 07:58:32;;;;;;;5.43;4.10;;;16.90;99.90;;;;;;5053769;28;20442;-57
2023/10/20 08:00:59;;;;;;;9.37;4.17;;;16.90;99.90;;;;;;5053702;28;20466;-57
2023/10/20 08:03:25;;;;;;;3.87;3.60;;;17.00;99.90;;;;;;5054021;28;20442;-57
2023/10/20 08:05:52;;;;;;;4.00;3.70;;;16.90;99.90;;;;;;5053753;28;20954;-57
2023/10/20 08:08:19;;;;;;;3.83;3.43;;;17.00;99.90;;;;;;5053820;28;20452;-57
2023/10/20 08:10:47;;;;;;;3.97;3.50;;;17.00;99.90;;;;;;5053301;28;20469;-57
2023/10/20 08:13:14;;;;;;;7.37;3.90;;;17.00;99.90;;;;;;5053434;28;20481;-57
2023/10/20 08:15:41;;;;;;;4.43;4.03;;;17.00;99.90;;;;;;5053512;28;20819;-57
2023/10/20 08:18:08;;;;;;;4.97;4.47;;;17.00;99.90;;;;;;5053206;28;20525;-57
2023/10/20 08:20:34;;;;;;;5.83;4.73;;;17.10;99.90;;;;;;5053261;28;20831;-57
2023/10/20 08:23:01;;;;;;;5.00;4.53;;;17.10;99.90;;;;;;5053231;28;20445;-57
2023/10/20 08:25:28;;;;;;;5.73;5.20;;;17.10;99.90;;;;;;5053302;28;20451;-57
2023/10/20 08:27:56;;;;;;;5.43;4.93;;;17.10;99.90;;;;;;5053281;28;20448;-58
2023/10/20 08:30:23;;;;;;;5.33;4.60;;;17.10;99.90;;;;;;5054023;28;20484;-58
2023/10/20 08:32:49;;;;;;;5.63;4.90;;;17.10;99.90;;;;;;5053540;28;20442;-57
2023/10/20 08:35:16;;;;;;;5.10;4.70;;;17.10;99.90;;;;;;5053204;28;20492;-57
2023/10/20 08:37:43;;;;;;;5.07;4.70;;;17.10;99.90;;;;;;5053150;28;20457;-57
2023/10/20 08:40:12;;;;;;;6.33;5.73;;;17.20;99.90;;;;;;5053191;28;20473;-57
2023/10/20 08:42:39;;;;;;;7.07;6.37;;;17.20;99.90;;;;;;5053183;28;20448;-57
2023/10/20 08:45:11;;;;;;;6.40;5.10;;;17.20;99.90;;;;;;5053236;28;20437;-57
2023/10/20 08:47:39;;;;;;;6.33;5.80;;;17.20;99.90;;;;;;5053364;28;20422;-57
2023/10/20 08:50:09;;;;;;;9.53;6.73;;;17.20;99.90;;;;;;5053188;28;20438;-57
2023/10/20 08:52:36;;;;;;;6.60;6.00;;;17.20;99.90;;;;;;5053233;28;20469;-57
2023/10/20 08:55:07;;;;;;;6.10;5.60;;;17.20;99.90;;;;;;5052964;28;20566;-57
2023/10/20 08:57:34;;;;;;;8.50;6.13;;;17.20;99.90;;;;;;5053112;28;20437;-57
2023/10/20 09:00:00;;;;;;;6.60;6.00;;;17.20;99.90;;;;;;5052920;28;20446;-57
2023/10/20 09:02:38;;;;;;;7.13;6.43;;;17.20;99.90;;;;;;5052870;28;20818;-57
2023/10/20 09:05:06;;;;;;;7.37;6.67;;;17.20;99.90;;;;;;5053001;28;20446;-57
2023/10/20 09:07:33;;;;;;;5.97;5.53;;;17.30;99.90;;;;;;5052927;28;20446;-57
2023/10/20 09:10:00;;;;;;;7.40;6.30;;;17.20;99.90;;;;;;5052519;28;20472;-57
2023/10/20 09:12:29;;;;;;;8.10;7.10;;;17.20;99.90;;;;;;5052887;28;20452;-57
2023/10/20 09:14:56;;;;;;;8.70;6.20;;;17.20;99.90;;;;;;5052723;28;20481;-58
2023/10/20 09:17:23;;;;;;;6.77;6.20;;;17.20;99.90;;;;;;5052446;28;20460;-57
2023/10/20 09:19:52;;;;;;;7.87;6.97;;;17.20;99.90;;;;;;5052596;28;20818;-57
2023/10/20 09:22:27;;;;;;;6.40;5.90;;;17.20;99.90;;;;;;5052724;28;20458;-57
2023/10/20 09:24:55;;;;;;;8.37;7.53;;;17.20;99.90;;;;;;5052671;28;20425;-58
2023/10/20 09:27:22;;;;;;;7.97;7.27;;;17.20;99.90;;;;;;5052680;28;20450;-58
2023/10/20 09:29:50;;;;;;;7.57;6.87;;;17.20;99.90;;;;;;5052253;28;20442;-57
2023/10/20 09:32:18;;;;;;;8.07;7.00;;;17.20;99.90;;;;;;5055705;28;20510;-57
2023/10/20 09:34:45;;;;;;;9.60;7.20;;;17.20;99.90;;;;;;5056252;28;20485;-57
2023/10/20 09:37:15;;;;;;;7.67;6.97;;;17.30;99.90;;;;;;5056303;28;20464;-57
2023/10/20 09:39:44;;;;;;;8.57;7.77;;;17.30;99.90;;;;;;5056291;28;20422;-57
2023/10/20 09:42:13;;;;;;;6.77;6.07;;;17.30;99.90;;;;;;5055792;28;20983;-57
2023/10/20 09:44:56;;;;;;;6.23;5.63;;;17.30;99.90;;;;;;5055778;28;20886;-57
2023/10/20 09:47:28;;;;;;;7.07;6.47;;;17.30;99.90;;;;;;5055800;28;20437;-57
2023/10/20 09:49:55;;;;;;;7.00;6.30;;;17.30;99.90;;;;;;5055737;28;20930;-57
2023/10/20 09:52:23;;;;;;;6.37;5.87;;;17.30;99.90;;;;;;5055917;28;20460;-57
2023/10/20 09:54:51;;;;;;;6.83;6.23;;;17.30;99.90;;;;;;5055858;28;20489;-57
2023/10/20 09:57:18;;;;;;;8.33;6.43;;;17.30;99.90;;;;;;5055881;28;20438;-57
2023/10/20 09:59:51;;;;;;;8.00;5.43;;;17.30;99.90;;;;;;5055470;28;20460;-57
2023/10/20 10:02:27;;;;;;;7.20;6.60;;;17.40;99.90;;;;;;5055786;28;20853;-57
2023/10/20 10:04:54;;;;;;;6.97;6.27;;;17.40;99.90;;;;;;5055762;28;20426;-57
2023/10/20 10:07:29;;;;;;;6.67;6.03;;;17.40;99.90;;;;;;5055381;28;20822;-57
2023/10/20 10:09:57;;;;;;;6.03;5.50;;;17.40;99.90;;;;;;5055442;28;20514;-57
2023/10/20 10:12:25;;;;;;;7.03;6.23;;;17.40;99.90;;;;;;5055702;28;20450;-57
2023/10/20 10:14:57;;;;;;;6.43;5.80;;;17.50;99.90;;;;;;5055441;28;20482;-57
2023/10/20 10:17:26;;;;;;;5.63;5.23;;;17.50;99.90;;;;;;5055540;28;20456;-57
2023/10/20 10:19:53;;;;;;;6.90;6.23;;;17.50;99.90;;;;;;5055408;28;20445;-57
2023/10/20 10:22:26;;;;;;;6.60;6.00;;;17.60;99.90;;;;;;5055147;28;20939;-57
2023/10/20 10:24:55;;;;;;;7.30;6.57;;;17.60;99.90;;;;;;5055393;28;20426;-57
2023/10/20 10:27:23;;;;;;;6.63;6.03;;;17.60;99.90;;;;;;5055421;28;20449;-57
2023/10/20 10:29:53;;;;;;;7.00;6.30;;;17.70;99.90;;;;;;5055181;28;20526;-57
2023/10/20 10:32:20;;;;;;;6.70;6.20;;;17.70;99.90;;;;;;5056045;28;20445;-57
2023/10/20 10:34:49;;;;;;;5.70;5.20;;;17.70;99.90;;;;;;5055181;28;20473;-57
2023/10/20 10:37:17;;;;;;;30.37;7.37;;;17.80;99.90;;;;;;5054759;28;20541;-57
2023/10/20 10:39:43;;;;;;;6.10;5.60;;;17.80;99.90;;;;;;5055410;28;20485;-57
2023/10/20 10:42:12;;;;;;;6.90;6.20;;;17.80;99.90;;;;;;5054814;28;20461;-57
2023/10/20 10:44:39;;;;;;;6.10;5.50;;;17.70;99.90;;;;;;5054947;28;20442;-57
2023/10/20 10:47:07;;;;;;;7.90;6.50;;;17.80;99.90;;;;;;5054903;28;20438;-57
2023/10/20 10:49:34;;;;;;;6.50;5.90;;;17.70;99.90;;;;;;5054906;28;20442;-57
2023/10/20 10:52:07;;;;;;;5.87;5.47;;;17.70;99.90;;;;;;5054666;28;20473;-58
2023/10/20 10:54:34;;;;;;;6.20;5.70;;;17.70;99.90;;;;;;5054868;28;20473;-58
2023/10/20 10:57:01;;;;;;;6.30;5.80;;;17.60;99.90;;;;;;5054791;28;20541;-59
2023/10/20 10:59:30;;;;;;;6.23;5.73;;;17.60;99.90;;;;;;5055122;28;20446;-59
2023/10/20 11:02:00;;;;;;;6.40;5.90;;;17.60;99.90;;;;;;5054866;28;20881;-59
2023/10/20 11:04:28;;;;;;;6.43;5.90;;;17.60;99.90;;;;;;5054728;28;20433;-59
2023/10/20 11:06:55;;;;;;;6.07;5.57;;;17.50;99.90;;;;;;5054680;28;20813;-59
2023/10/20 11:09:26;;;;;;;7.00;6.50;;;17.50;99.90;;;;;;5054108;28;20967;-59
2023/10/20 11:11:53;;;;;;;7.30;6.63;;;17.50;99.90;;;;;;5054499;28;20465;-59
2023/10/20 11:14:20;;;;;;;6.37;5.87;;;17.50;99.90;;;;;;5054378;28;20485;-59
2023/10/20 11:16:49;;;;;;;6.07;5.50;;;17.60;99.90;;;;;;5054018;28;20800;-59
2023/10/20 11:19:17;;;;;;;5.80;5.10;;;17.60;99.90;;;;;;5054353;28;20477;-59
2023/10/20 11:21:45;;;;;;;6.27;5.60;;;17.60;99.90;;;;;;5054253;28;20469;-59
2023/10/20 11:24:12;;;;;;;8.27;7.57;;;17.60;99.90;;;;;;5054233;28;20449;-59
2023/10/20 11:26:39;;;;;;;8.73;7.93;;;17.60;99.90;;;;;;5054141;28;20812;-59
2023/10/20 11:29:08;;;;;;;7.83;7.13;;;17.60;99.90;;;;;;5053971;28;20966;-60
2023/10/20 11:31:35;;;;;;;7.60;6.90;;;17.60;99.90;;;;;;5054110;28;20476;-59
2023/10/20 11:34:04;;;;;;;7.90;7.10;;;17.60;99.90;;;;;;5054218;28;20468;-59
2023/10/20 11:36:31;;;;;;;8.00;7.20;;;17.60;99.90;;;;;;5054122;28;20445;-59
2023/10/20 11:38:57;;;;;;;8.37;7.67;;;17.60;99.90;;;;;;5053718;28;20822;-59
2023/10/20 11:41:24;;;;;;;7.67;6.93;;;17.60;99.90;;;;;;5053875;28;20818;-59
2023/10/20 11:43:51;;;;;;;7.80;7.10;;;17.60;99.90;;;;;;5053799;28;20442;-59
2023/10/20 11:46:17;;;;;;;9.07;8.03;;;17.60;99.90;;;;;;5053898;28;20450;-59
2023/10/20 11:48:44;;;;;;;9.30;8.40;;;17.60;99.90;;;;;;5053441;28;20823;-59
2023/10/20 11:51:12;;;;;;;8.10;7.30;;;17.60;99.90;;;;;;5053424;28;20975;-59
2023/10/20 11:53:39;;;;;;;6.57;6.00;;;17.60;99.90;;;;;;5053133;28;20445;-59
2023/10/20 11:56:07;;;;;;;7.50;6.83;;;17.60;99.90;;;;;;5053920;28;20569;-59
2023/10/20 11:58:33;;;;;;;7.80;7.00;;;17.60;99.90;;;;;;5053737;28;20445;-59
2023/10/20 12:01:00;;;;;;;7.83;7.13;;;17.60;99.90;;;;;;5053622;28;20504;-59
2023/10/20 12:03:27;;;;;;;9.60;7.80;;;17.50;99.90;;;;;;5053407;28;20441;-59
2023/10/20 12:05:55;;;;;;;8.13;7.40;;;17.50;99.90;;;;;;5053552;28;20446;-59
2023/10/20 12:08:23;;;;;;;8.10;7.30;;;17.50;99.90;;;;;;5053559;28;20453;-59
2023/10/20 12:10:50;;;;;;;7.77;7.03;;;17.50;99.90;;;;;;5053089;28;20535;-59
2023/10/20 12:13:18;;;;;;;7.97;7.27;;;17.50;99.90;;;;;;5053462;28;20441;-59
2023/10/20 12:15:44;;;;;;;7.60;7.00;;;17.50;99.90;;;;;;5053377;28;20566;-59
2023/10/20 12:18:11;;;;;;;8.67;7.87;;;17.40;99.90;;;;;;5053472;28;20503;-59
2023/10/20 12:20:38;;;;;;;7.10;6.50;;;17.50;99.90;;;;;;5053337;28;20470;-59
2023/10/20 12:23:05;;;;;;;8.40;7.70;;;17.40;99.90;;;;;;5053372;28;20452;-59
2023/10/20 12:25:33;;;;;;;8.30;7.60;;;17.50;99.90;;;;;;5053273;28;20450;-59
2023/10/20 12:28:00;;;;;;;8.70;7.70;;;17.50;99.90;;;;;;5053263;28;20503;-58
2023/10/20 12:30:27;;;;;;;8.90;8.00;;;17.50;99.90;;;;;;5053261;28;20465;-58
2023/10/20 12:32:54;;;;;;;8.70;7.90;;;17.50;99.90;;;;;;5053322;28;20445;-58
2023/10/20 12:35:21;;;;;;;9.60;8.10;;;17.60;99.90;;;;;;5053275;28;20485;-58
2023/10/20 12:37:47;;;;;;;7.90;7.20;;;17.60;99.90;;;;;;5053466;28;20445;-58
2023/10/20 12:40:14;;;;;;;7.07;6.40;;;17.60;99.90;;;;;;5053097;28;20465;-58
2023/10/20 12:42:43;;;;;;;8.00;7.30;;;17.70;99.90;;;;;;5052916;28;20446;-58
2023/10/20 12:45:10;;;;;;;7.73;7.03;;;17.70;99.90;;;;;;5053207;28;20449;-58
2023/10/20 12:47:37;;;;;;;8.30;7.60;;;17.70;99.90;;;;;;5053012;28;20857;-58
2023/10/20 12:50:06;;;;;;;7.10;6.40;;;17.70;99.90;;;;;;5053251;28;20446;-58
2023/10/20 12:52:33;;;;;;;7.20;6.50;;;17.70;99.90;;;;;;5053233;28;20556;-58
2023/10/20 12:55:00;;;;;;;7.50;6.80;;;17.70;99.90;;;;;;5053238;28;20824;-58
2023/10/20 12:57:26;;;;;;;7.73;7.03;;;17.70;99.90;;;;;;5053411;28;20481;-59
2023/10/20 12:59:55;;;;;;;7.77;6.87;;;17.70;99.90;;;;;;5053324;28;20438;-58
2023/10/20 13:02:21;;;;;;;8.23;7.43;;;17.60;99.90;;;;;;5053606;28;20944;-58
2023/10/20 13:04:48;;;;;;;8.90;8.03;;;17.70;99.90;;;;;;5054957;28;20453;-58
2023/10/20 13:07:15;;;;;;;8.00;7.17;;;17.60;99.90;;;;;;5057247;28;20442;-58
2023/10/20 13:09:41;;;;;;;9.23;8.33;;;17.50;99.90;;;;;;5057070;28;20465;-60
2023/10/20 13:12:08;;;;;;;9.47;7.90;;;17.30;99.90;;;;;;5056938;28;20472;-59